Time;durP1;ratioP1;P1;durP2;ratioP2;P2;SDS_P1;SDS_P2;PMS_P1;PMS_P2;Temp;Humidity;BMP_temperature;BMP_pressure;BME280_temperature;BME280_humidity;BME280_pressure;Samples;Min_cycle;Max_cycle;Signal;HPM_P1;HPM_P2
2022/03/18 00:01:51;;;;;;;28.33;5.72;;;;;;;-149.78;100.00;50258.28;4825439;29;20087;-70
2022/03/18 00:04:18;;;;;;;18.00;5.15;;;;;;;-149.78;100.00;50271.97;4809374;29;20107;-70
2022/03/18 00:06:43;;;;;;;21.30;5.47;;;;;;;-149.78;100.00;50307.16;4809245;29;20039;-70
2022/03/18 00:09:09;;;;;;;22.50;6.05;;;;;;;-149.78;100.00;50303.25;4809148;29;20034;-70
2022/03/18 00:11:34;;;;;;;27.27;6.63;;;;;;;-149.78;100.00;50279.78;4809326;29;20042;-70
2022/03/18 00:14:02;;;;;;;27.17;6.18;;;;;;;-149.78;100.00;50299.34;4825268;29;20109;-70
2022/03/18 00:16:28;;;;;;;18.45;6.20;;;;;;;-149.78;100.00;50287.59;4794370;29;20057;-70
2022/03/18 00:18:55;;;;;;;24.40;5.63;;;;;;;-149.78;100.00;50303.25;4793814;29;20133;-73
2022/03/18 00:21:21;;;;;;;18.67;5.95;;;;;;;-149.78;100.00;50314.97;4793380;29;20581;-73
2022/03/18 00:23:48;;;;;;;22.48;5.55;;;;;;;-149.78;100.00;50275.88;4808840;29;20380;-70
2022/03/18 00:26:13;;;;;;;23.90;6.75;;;;;;;-149.78;100.00;50297.38;4825331;29;20050;-70
2022/03/18 00:28:39;;;;;;;36.13;9.70;;;;;;;-149.78;100.00;50285.66;4843401;29;20042;-70
2022/03/18 00:31:08;;;;;;;22.42;6.63;;;;;;;-149.78;100.00;50326.72;4843301;29;20517;-70
2022/03/18 00:33:34;;;;;;;20.88;5.85;;;;;;;-149.78;100.00;50307.16;4843418;29;20075;-70
2022/03/18 00:36:00;;;;;;;26.38;6.32;;;;;;;-149.78;100.00;50320.84;4843258;29;20118;-70
2022/03/18 00:38:27;;;;;;;25.60;5.95;;;;;;;-149.78;100.00;50309.13;4826671;29;20050;-70
2022/03/18 00:40:56;;;;;;;19.58;5.25;;;;;;;-149.78;100.00;50311.06;4826965;29;20042;-70
2022/03/18 00:43:22;;;;;;;27.73;6.10;;;;;;;-149.78;100.00;50307.16;4843062;29;20042;-70
2022/03/18 00:45:48;;;;;;;22.85;6.35;;;;;;;-149.78;100.00;50324.75;4826049;29;20042;-70
2022/03/18 00:53:54;;;;;;;27.63;6.07;;;;;;;-149.78;100.00;50291.50;4843039;29;20045;-70
2022/03/18 00:56:20;;;;;;;25.13;6.85;;;;;;;-149.78;100.00;50299.34;4842239;29;20632;-70
2022/03/18 00:58:46;;;;;;;21.42;5.93;;;;;;;-149.78;100.00;50326.72;4842471;29;20045;-71
2022/03/18 01:01:12;;;;;;;28.02;6.80;;;;;;;-149.78;100.00;50330.63;4842002;29;20052;-70
2022/03/18 01:03:37;;;;;;;27.90;6.95;;;;;;;-149.78;100.00;50330.63;4826225;29;20128;-70
2022/03/18 01:06:04;;;;;;;24.27;6.72;;;;;;;-149.78;100.00;50314.97;4793478;29;20542;-71
2022/03/18 01:08:30;;;;;;;27.70;6.93;;;;;;;-149.78;100.00;50303.25;4824134;29;20036;-70
2022/03/18 01:10:57;;;;;;;23.42;7.18;;;;;;;-149.78;100.00;50295.44;4824189;29;20038;-70
2022/03/18 01:13:23;;;;;;;22.55;6.85;;;;;;;-149.78;100.00;50314.97;4807848;29;20042;-70
2022/03/18 01:15:49;;;;;;;25.58;7.43;;;;;;;-149.78;100.00;50287.59;4807532;29;20096;-70
2022/03/18 01:18:15;;;;;;;32.78;7.35;;;;;;;-149.78;100.00;50309.13;4804983;29;20468;-70
2022/03/18 01:20:41;;;;;;;25.98;6.88;;;;;;;-149.78;100.00;50334.53;4805033;29;20039;-70
2022/03/18 01:23:07;;;;;;;25.13;6.57;;;;;;;-149.78;100.00;50342.38;4801594;29;20061;-70
2022/03/18 01:25:35;;;;;;;28.27;7.30;;;;;;;-149.78;100.00;50354.09;4841542;29;20038;-70
2022/03/18 01:28:01;;;;;;;30.88;7.78;;;;;;;-149.78;100.00;50342.38;4797468;29;20462;-70
2022/03/18 01:30:30;;;;;;;31.85;8.32;;;;;;;-149.78;100.00;50318.91;4824154;29;20126;-70
2022/03/18 01:32:57;;;;;;;27.85;7.57;;;;;;;-149.78;100.00;50363.88;4792923;29;20091;-70
2022/03/18 01:35:23;;;;;;;34.83;7.03;;;;;;;-149.78;100.00;50334.53;4808191;29;20464;-70
2022/03/18 01:37:48;;;;;;;23.35;7.13;;;;;;;-149.78;100.00;50346.28;4823757;29;20057;-70
2022/03/18 01:40:14;;;;;;;33.85;7.78;;;;;;;-149.78;100.00;50354.09;4807690;29;20045;-70
2022/03/18 01:42:40;;;;;;;24.83;7.10;;;;;;;-149.78;100.00;50365.84;4824250;29;20034;-70
2022/03/18 01:45:08;;;;;;;22.60;6.78;;;;;;;-149.78;100.00;50334.53;4792336;29;20046;-70
2022/03/18 01:47:34;;;;;;;29.25;7.32;;;;;;;-149.78;100.00;50313.03;4822676;29;20550;-70
2022/03/18 01:50:01;;;;;;;27.45;7.82;;;;;;;-149.78;100.00;50346.28;4822688;29;20042;-70
2022/03/18 01:52:27;;;;;;;26.80;6.90;;;;;;;-149.78;100.00;50338.44;4807521;29;20495;-70
2022/03/18 01:54:54;;;;;;;25.35;6.88;;;;;;;-149.78;100.00;50320.84;4807678;29;20098;-70
2022/03/18 01:57:22;;;;;;;28.25;7.93;;;;;;;-149.78;100.00;50340.41;4823411;29;20046;-71
2022/03/18 01:59:50;;;;;;;26.42;7.10;;;;;;;-149.78;100.00;50314.97;4823882;29;20045;-70
2022/03/18 02:02:16;;;;;;;26.00;8.27;;;;;;;-149.78;100.00;50361.91;4823926;29;20052;-70
2022/03/18 02:04:46;;;;;;;30.55;7.45;;;;;;;-149.78;100.00;50313.03;4807155;29;20117;-70
2022/03/18 02:07:13;;;;;;;26.98;7.30;;;;;;;-149.78;100.00;50340.41;4807362;29;20487;-70
2022/03/18 02:09:39;;;;;;;31.33;7.38;;;;;;;-149.78;100.00;50363.88;4814606;29;20054;-70
2022/03/18 02:12:07;;;;;;;35.85;8.10;;;;;;;-149.78;100.00;50352.16;4807164;29;20070;-70
2022/03/18 02:14:51;;;;;;;33.70;8.05;;;;;;;-149.78;100.00;50361.91;4822576;29;20066;-70
2022/03/18 02:17:18;;;;;;;22.92;7.50;;;;;;;-149.78;100.00;50352.16;4822464;29;20050;-70
2022/03/18 02:19:46;;;;;;;28.40;7.53;;;;;;;-149.78;100.00;50354.09;4822318;29;20149;-70
2022/03/18 02:22:21;;;;;;;27.10;6.85;;;;;;;-149.78;100.00;50356.06;4813395;29;20042;-70
2022/03/18 02:24:49;;;;;;;29.52;8.90;;;;;;;-149.78;100.00;50365.84;4840524;29;20094;-70
2022/03/18 02:27:15;;;;;;;20.63;7.85;;;;;;;-149.78;100.00;50322.81;4833887;29;20041;-70
2022/03/18 02:29:42;;;;;;;32.63;7.90;;;;;;;-149.78;100.00;50346.28;4792103;29;20474;-70
2022/03/18 02:32:08;;;;;;;25.98;6.72;;;;;;;-149.78;100.00;50342.38;4823359;29;20043;-70
2022/03/18 02:34:36;;;;;;;30.00;7.78;;;;;;;-149.78;100.00;50359.97;4807154;29;20062;-70
2022/03/18 02:37:02;;;;;;;26.98;7.70;;;;;;;-149.78;100.00;50346.28;4790260;29;20440;-70
2022/03/18 02:39:28;;;;;;;26.23;7.65;;;;;;;-149.78;100.00;50352.16;4823929;29;20041;-70
2022/03/18 02:41:54;;;;;;;25.67;7.82;;;;;;;-149.78;100.00;50340.41;4809797;29;20045;-70
2022/03/18 02:44:20;;;;;;;23.92;7.68;;;;;;;-149.78;100.00;50350.19;4825320;29;20085;-70
2022/03/18 02:46:45;;;;;;;26.17;6.95;;;;;;;-149.78;100.00;50369.75;4809358;29;20058;-70
2022/03/18 02:49:11;;;;;;;24.35;7.00;;;;;;;-149.78;100.00;50334.53;4823378;29;20038;-70
2022/03/18 02:51:37;;;;;;;22.40;8.23;;;;;;;-149.78;100.00;50336.50;4823201;29;20407;-70
2022/03/18 02:54:07;;;;;;;31.63;8.10;;;;;;;-149.78;100.00;50334.53;4806947;29;20042;-70
2022/03/18 02:56:34;;;;;;;24.02;7.90;;;;;;;-149.78;100.00;50354.09;4823255;29;20046;-70
2022/03/18 02:59:00;;;;;;;20.13;6.82;;;;;;;-149.78;100.00;50373.66;4806903;29;20125;-70
2022/03/18 03:01:27;;;;;;;24.85;7.13;;;;;;;-149.78;100.00;50393.22;4823005;29;20038;-69
2022/03/18 03:03:54;;;;;;;26.48;6.78;;;;;;;-149.78;100.00;50354.09;4821823;29;20499;-70
2022/03/18 03:09:05;;;;;;;24.40;6.28;;;;;;;-149.78;100.00;50338.44;4825462;29;20034;-70
2022/03/18 03:11:31;;;;;;;30.42;7.95;;;;;;;-149.78;100.00;50326.72;4802641;29;20038;-70
2022/03/18 03:13:57;;;;;;;27.38;6.18;;;;;;;-149.78;100.00;50358.00;4800258;29;20053;-70
2022/03/18 03:16:22;;;;;;;26.95;8.35;;;;;;;-149.78;100.00;50324.75;4828046;29;20034;-70
2022/03/18 03:18:48;;;;;;;22.33;7.32;;;;;;;-149.78;100.00;50361.91;4843241;29;20090;-70
2022/03/18 03:21:15;;;;;;;24.02;6.63;;;;;;;-149.78;100.00;50385.38;4822931;29;20034;-70
2022/03/18 03:23:41;;;;;;;23.88;7.40;;;;;;;-149.78;100.00;50401.03;4843027;29;20037;-70
2022/03/18 03:26:08;;;;;;;21.98;6.35;;;;;;;-149.78;100.00;50391.25;4844330;29;20120;-70
2022/03/18 03:28:34;;;;;;;22.83;6.20;;;;;;;-149.78;100.00;50350.19;4830019;29;20113;-70
2022/03/18 03:31:00;;;;;;;18.15;6.60;;;;;;;-149.78;100.00;50350.19;4825196;29;20495;-70
2022/03/18 03:33:26;;;;;;;24.25;6.55;;;;;;;-149.78;100.00;50350.19;4793939;29;20099;-70
2022/03/18 03:35:53;;;;;;;20.02;7.05;;;;;;;-149.78;100.00;50377.56;4825244;29;20040;-70
2022/03/18 03:38:21;;;;;;;21.05;7.78;;;;;;;-149.78;100.00;50377.56;4824851;29;20130;-70
2022/03/18 03:40:47;;;;;;;22.50;6.70;;;;;;;-149.78;100.00;50338.44;4825130;29;20061;-70
2022/03/18 03:43:14;;;;;;;26.00;7.32;;;;;;;-149.78;100.00;50389.31;4825235;29;20041;-70
2022/03/18 03:45:40;;;;;;;29.13;7.65;;;;;;;-149.78;100.00;50397.13;4802947;29;20124;-70
2022/03/18 03:48:06;;;;;;;24.27;7.93;;;;;;;-149.78;100.00;50385.38;4828529;29;20035;-70
2022/03/18 03:50:33;;;;;;;24.58;8.10;;;;;;;-149.78;100.00;50361.91;4824953;29;20038;-70
2022/03/18 03:53:00;;;;;;;27.08;7.88;;;;;;;-149.78;100.00;50371.69;4824100;29;20046;-69
2022/03/18 03:55:25;;;;;;;29.08;8.88;;;;;;;-149.78;100.00;50391.25;4825065;29;20040;-70
2022/03/18 03:57:51;;;;;;;29.38;8.32;;;;;;;-149.78;100.00;50377.56;4808823;29;20073;-70
2022/03/18 04:00:17;;;;;;;26.98;8.98;;;;;;;-149.78;100.00;50389.31;4825326;29;20499;-70
2022/03/18 04:02:43;;;;;;;35.55;8.63;;;;;;;-149.78;100.00;50385.38;4808995;29;20050;-70
2022/03/18 04:05:10;;;;;;;30.27;8.93;;;;;;;-149.78;100.00;50350.19;4832979;29;20459;-70
2022/03/18 04:07:38;;;;;;;28.63;9.48;;;;;;;-149.78;100.00;50420.59;4843455;29;20046;-70
2022/03/18 04:10:05;;;;;;;33.85;8.27;;;;;;;-149.78;100.00;50393.22;4843363;29;20041;-70
2022/03/18 04:12:34;;;;;;;31.17;8.65;;;;;;;-149.78;100.00;50369.75;4843452;29;20030;-70
2022/03/18 04:15:01;;;;;;;30.08;9.65;;;;;;;-149.78;100.00;50389.31;4827158;29;20045;-70
2022/03/18 04:17:39;;;;;;;26.38;8.50;;;;;;;-149.78;100.00;50369.75;4826862;29;20049;-70
2022/03/18 04:20:05;;;;;;;25.88;8.13;;;;;;;-149.78;100.00;50356.06;4842291;29;20064;-70
2022/03/18 04:22:31;;;;;;;22.27;7.88;;;;;;;-149.78;100.00;50389.31;4831957;29;20060;-70
2022/03/18 04:24:57;;;;;;;35.08;9.25;;;;;;;-149.78;100.00;50350.19;4825159;29;20571;-70
2022/03/18 04:27:25;;;;;;;30.75;9.35;;;;;;;-149.78;100.00;50389.31;4783777;29;20121;-70
2022/03/18 04:29:53;;;;;;;26.00;9.38;;;;;;;-149.78;100.00;50401.03;4816828;29;20042;-70
2022/03/18 04:32:19;;;;;;;33.15;9.23;;;;;;;-149.78;100.00;50350.19;4819468;29;20030;-70
2022/03/18 04:34:44;;;;;;;30.70;8.95;;;;;;;-149.78;100.00;50414.72;4802722;29;20045;-70
2022/03/18 04:37:10;;;;;;;31.30;8.80;;;;;;;-149.78;100.00;50369.75;4826922;29;20038;-69
2022/03/18 04:39:36;;;;;;;32.05;9.05;;;;;;;-149.78;100.00;50389.31;4822761;29;20132;-70
2022/03/18 04:42:03;;;;;;;26.42;8.25;;;;;;;-149.78;100.00;50379.53;4793495;29;20491;-69
2022/03/18 04:44:28;;;;;;;30.42;8.98;;;;;;;-149.78;100.00;50375.63;4825102;29;20051;-70
2022/03/18 04:46:54;;;;;;;33.75;8.73;;;;;;;-149.78;100.00;50401.03;4826326;29;20042;-70
2022/03/18 04:49:20;;;;;;;27.27;7.55;;;;;;;-149.78;100.00;50358.00;4811487;29;20049;-70
2022/03/18 04:51:45;;;;;;;28.50;9.45;;;;;;;-149.78;100.00;50381.47;4843090;29;20539;-70
2022/03/18 04:54:11;;;;;;;30.15;8.80;;;;;;;-149.78;100.00;50385.38;4842995;29;20042;-70
2022/03/18 04:59:21;;;;;;;25.27;8.10;;;;;;;-149.78;100.00;50358.00;4842639;29;20038;-70
2022/03/18 05:01:47;;;;;;;25.17;8.38;;;;;;;-149.78;100.00;50346.28;4842764;29;20168;-69
2022/03/18 05:04:27;;;;;;;23.70;7.85;;;;;;;-149.78;100.00;50338.44;4819681;29;20038;-70
2022/03/18 05:06:53;;;;;;;25.30;6.93;;;;;;;-149.78;100.00;50346.28;4823343;29;20179;-70
2022/03/18 05:09:18;;;;;;;20.48;6.65;;;;;;;-149.78;100.00;50385.38;4823999;29;20042;-70
2022/03/18 05:11:44;;;;;;;18.90;6.43;;;;;;;-149.78;100.00;50408.84;4822567;29;20137;-70
2022/03/18 05:14:10;;;;;;;20.83;7.13;;;;;;;-149.78;100.00;50369.75;4841667;29;20499;-70
2022/03/18 05:16:35;;;;;;;39.08;8.00;;;;;;;-149.78;100.00;50371.69;4840840;29;20042;-70
2022/03/18 05:19:02;;;;;;;25.73;7.43;;;;;;;-149.78;100.00;50375.63;4842086;29;20042;-70
2022/03/18 05:21:28;;;;;;;26.00;7.85;;;;;;;-149.78;100.00;50363.88;4832028;29;20146;-70
2022/03/18 05:23:54;;;;;;;24.25;7.68;;;;;;;-149.78;100.00;50395.16;4823671;29;20122;-70
2022/03/18 05:26:20;;;;;;;25.98;9.02;;;;;;;-149.78;100.00;50373.66;4807259;29;20174;-70
2022/03/18 05:28:46;;;;;;;31.90;7.43;;;;;;;-149.78;100.00;50369.75;4823537;29;20523;-70
2022/03/18 05:31:12;;;;;;;28.85;8.48;;;;;;;-149.78;100.00;50387.34;4806870;29;20045;-70
2022/03/18 05:33:38;;;;;;;33.47;8.43;;;;;;;-149.78;100.00;50369.75;4823594;29;20081;-70
2022/03/18 05:36:04;;;;;;;26.55;7.78;;;;;;;-149.78;100.00;50373.66;4822222;29;20046;-70
2022/03/18 05:38:30;;;;;;;29.02;7.80;;;;;;;-149.78;100.00;50373.66;4799357;29;20154;-70
2022/03/18 05:40:55;;;;;;;30.73;7.95;;;;;;;-149.78;100.00;50373.66;4825712;29;20439;-70
2022/03/18 05:43:21;;;;;;;31.30;8.90;;;;;;;-149.78;100.00;50401.03;4841880;29;20075;-70
2022/03/18 05:45:47;;;;;;;32.53;9.02;;;;;;;-149.78;100.00;50336.50;4815444;29;20038;-70
2022/03/18 05:48:14;;;;;;;38.35;9.32;;;;;;;-149.78;100.00;50352.16;4807814;29;20167;-70
2022/03/18 05:50:42;;;;;;;36.47;8.45;;;;;;;-149.78;100.00;50381.47;4807280;29;20499;-70
2022/03/18 05:53:08;;;;;;;32.67;9.60;;;;;;;-149.78;100.00;50361.91;4823709;29;20042;-70
2022/03/18 05:58:19;;;;;;;31.55;9.13;;;;;;;-149.78;100.00;50397.13;4823749;29;20099;-70
2022/03/18 06:00:45;;;;;;;35.92;9.68;;;;;;;-149.78;100.00;50369.75;4822684;29;20723;-70
2022/03/18 06:03:14;;;;;;;31.42;10.07;;;;;;;-149.78;100.00;50385.38;4824031;29;20109;-70
2022/03/18 06:05:42;;;;;;;27.52;8.52;;;;;;;-149.78;100.00;50393.22;4823786;29;20041;-70
2022/03/18 06:13:38;;;;;;;32.10;9.07;;;;;;;-149.78;100.00;50403.00;4820647;29;20061;-70
2022/03/18 06:16:05;;;;;;;25.92;8.00;;;;;;;-149.78;100.00;50363.88;4821652;29;20035;-70
2022/03/18 06:18:30;;;;;;;33.70;8.75;;;;;;;-149.78;100.00;50393.22;4805093;29;20039;-69
2022/03/18 06:20:56;;;;;;;36.30;8.43;;;;;;;-149.78;100.00;50379.53;4814266;29;20542;-70
2022/03/18 06:23:22;;;;;;;25.73;8.70;;;;;;;-149.78;100.00;50401.03;4825443;29;20484;-69
2022/03/18 06:25:48;;;;;;;30.17;9.43;;;;;;;-149.78;100.00;50373.66;4822322;29;20130;-70
2022/03/18 06:28:14;;;;;;;21.27;8.05;;;;;;;-149.78;100.00;50369.75;4803697;29;20122;-70
2022/03/18 06:30:39;;;;;;;34.05;8.25;;;;;;;-149.78;100.00;50428.41;4800457;29;20153;-70
2022/03/18 06:33:06;;;;;;;29.63;8.63;;;;;;;-149.78;100.00;50412.78;4824642;29;20133;-70
2022/03/18 06:35:31;;;;;;;22.27;7.90;;;;;;;-149.78;100.00;50381.47;4821218;29;20121;-70
2022/03/18 06:37:58;;;;;;;36.90;9.50;;;;;;;-149.78;100.00;50373.66;4796758;29;20522;-70
2022/03/18 06:40:25;;;;;;;28.08;8.40;;;;;;;-149.78;100.00;50377.56;4800533;29;20429;-70
2022/03/18 06:42:50;;;;;;;30.70;8.98;;;;;;;-149.78;100.00;50389.31;4820025;29;20035;-70
2022/03/18 06:45:16;;;;;;;29.35;9.23;;;;;;;-149.78;100.00;50381.47;4825564;29;20471;-70
2022/03/18 06:47:41;;;;;;;33.50;10.00;;;;;;;-149.78;100.00;50389.31;4817382;29;20464;-70
2022/03/18 06:50:09;;;;;;;40.95;10.05;;;;;;;-149.78;100.00;50395.16;4806762;29;20046;-70
2022/03/18 06:52:35;;;;;;;28.70;9.32;;;;;;;-149.78;100.00;50377.56;4824289;29;20490;-70
2022/03/18 06:55:02;;;;;;;39.03;9.50;;;;;;;-149.78;100.00;50416.69;4823848;29;20047;-70
2022/03/18 06:57:27;;;;;;;39.30;11.00;;;;;;;-149.78;100.00;50393.22;4806749;29;20049;-70
2022/03/18 06:59:53;;;;;;;37.40;10.75;;;;;;;-149.78;100.00;50397.13;4825753;29;20042;-73
2022/03/18 07:02:19;;;;;;;28.25;9.70;;;;;;;-149.78;100.00;50397.13;4786681;29;20699;-72
2022/03/18 07:04:44;;;;;;;27.35;9.48;;;;;;;-149.78;100.00;50377.56;4824491;29;20546;-72
2022/03/18 07:07:11;;;;;;;24.30;8.90;;;;;;;-149.78;100.00;50334.53;4824779;29;20042;-72
2022/03/18 07:09:36;;;;;;;27.02;8.27;;;;;;;-149.78;100.00;50401.03;4803621;29;20050;-72
2022/03/18 07:12:02;;;;;;;30.25;8.55;;;;;;;-149.78;100.00;50397.13;4826372;29;20099;-72
2022/03/18 07:14:28;;;;;;;29.92;10.20;;;;;;;-149.78;100.00;50389.31;4800812;29;20915;-72
2022/03/18 07:19:38;;;;;;;35.53;10.32;;;;;;;-149.78;100.00;50391.25;4824188;29;20046;-71
2022/03/18 07:22:05;;;;;;;27.55;9.68;;;;;;;-149.78;100.00;50365.84;4824198;29;20030;-72
2022/03/18 07:24:31;;;;;;;30.90;10.93;;;;;;;-149.78;100.00;50354.09;4800487;29;20060;-72
2022/03/18 07:26:56;;;;;;;32.17;10.13;;;;;;;-149.78;100.00;50358.00;4808435;29;20034;-72
2022/03/18 07:29:22;;;;;;;29.83;9.55;;;;;;;-149.78;100.00;50346.28;4824705;29;20039;-73
2022/03/18 07:31:51;;;;;;;30.45;9.90;;;;;;;-149.78;100.00;50334.53;4808978;29;20652;-72
2022/03/18 07:34:16;;;;;;;23.10;8.38;;;;;;;-149.78;100.00;50354.09;4793875;29;20043;-71
2022/03/18 07:36:42;;;;;;;27.98;9.10;;;;;;;-149.78;100.00;50334.53;4807153;29;20087;-73
2022/03/18 07:39:08;;;;;;;23.42;9.48;;;;;;;-149.78;100.00;50311.06;4823902;29;20123;-72
2022/03/18 07:41:35;;;;;;;22.10;8.68;;;;;;;-149.78;100.00;50314.97;4823694;29;20046;-72
2022/03/18 07:44:02;;;;;;;30.25;9.93;;;;;;;-149.78;100.00;50346.28;4807241;29;20034;-73
2022/03/18 07:46:28;;;;;;;24.90;8.98;;;;;;;-149.78;100.00;50299.34;4818077;29;20038;-71
2022/03/18 07:48:53;;;;;;;25.50;8.88;;;;;;;-149.78;100.00;50270.00;4821640;29;20039;-71
2022/03/18 07:51:19;;;;;;;19.98;7.88;;;;;;;-149.78;100.00;50248.50;4824362;29;20539;-72
2022/03/18 07:53:45;;;;;;;20.17;7.53;;;;;;;-149.78;100.00;50234.81;4823584;29;20075;-71
2022/03/18 07:56:11;;;;;;;20.58;7.90;;;;;;;-149.78;100.00;50174.19;4791333;29;20518;-71
2022/03/18 07:58:37;;;;;;;25.90;8.02;;;;;;;-149.78;100.00;50193.72;4823394;29;20049;-72
2022/03/18 08:01:05;;;;;;;26.08;8.32;;;;;;;-149.78;100.00;50205.47;4823513;29;20038;-73
2022/03/18 08:03:31;;;;;;;20.75;9.05;;;;;;;-149.78;100.00;50182.00;4807481;29;20042;-73
2022/03/18 08:05:56;;;;;;;24.15;8.43;;;;;;;-149.78;100.00;50162.44;4807386;29;20035;-73
2022/03/18 08:08:22;;;;;;;16.23;8.77;;;;;;;-149.78;100.00;50123.34;4791420;29;20042;-73
2022/03/18 08:10:49;;;;;;;27.25;9.63;;;;;;;-149.78;100.00;50123.34;4824324;29;20407;-73
2022/03/18 08:13:17;;;;;;;23.27;9.40;;;;;;;-149.78;100.00;50133.09;4820896;29;20050;-73
2022/03/18 08:15:44;;;;;;;27.17;10.85;;;;;;;-149.78;100.00;50121.38;4822021;29;20121;-73
2022/03/18 08:18:11;;;;;;;21.73;9.93;;;;;;;-149.78;100.00;50131.16;4805609;29;20038;-73
2022/03/18 08:20:40;;;;;;;25.70;10.38;;;;;;;-149.78;100.00;50135.06;4820325;29;20038;-72
2022/03/18 08:23:11;;;;;;;18.58;9.52;;;;;;;-149.78;100.00;50123.34;4819507;29;20047;-73
2022/03/18 08:25:36;;;;;;;24.45;10.20;;;;;;;-149.78;100.00;50140.94;4817162;29;20030;-73
2022/03/18 08:28:05;;;;;;;22.77;10.40;;;;;;;-149.78;100.00;50146.81;4821181;29;20475;-73
2022/03/18 08:30:31;;;;;;;23.80;11.13;;;;;;;-149.78;100.00;50129.19;4798795;29;20395;-73
2022/03/18 08:32:56;;;;;;;26.77;11.32;;;;;;;-149.78;100.00;50129.19;4807782;29;20133;-73
2022/03/18 08:35:22;;;;;;;24.10;11.18;;;;;;;-149.78;100.00;50137.03;4822900;29;20495;-73
2022/03/18 08:37:57;;;;;;;27.23;9.98;;;;;;;-149.78;100.00;50127.25;4824293;29;20054;-72
2022/03/18 08:40:25;;;;;;;26.13;10.82;;;;;;;-149.78;100.00;50125.28;4824523;29;20492;-73
2022/03/18 08:42:51;;;;;;;25.80;11.32;;;;;;;-149.78;100.00;50107.69;4820346;29;20042;-73
2022/03/18 08:45:18;;;;;;;20.77;10.18;;;;;;;-149.78;100.00;50097.91;4822326;29;20499;-70
2022/03/18 08:47:44;;;;;;;31.98;9.93;;;;;;;-149.78;100.00;50115.50;4807775;29;20053;-73
2022/03/18 08:50:11;;;;;;;25.88;11.48;;;;;;;-149.78;100.00;50103.78;4824076;29;20483;-73
2022/03/18 08:52:36;;;;;;;30.70;12.05;;;;;;;-149.78;100.00;50090.09;4823654;29;20047;-72
2022/03/18 08:55:03;;;;;;;29.05;11.80;;;;;;;-149.78;100.00;50088.13;4807506;29;20560;-73
2022/03/18 08:57:31;;;;;;;28.33;11.38;;;;;;;-149.78;100.00;50095.94;4823658;29;20042;-73
2022/03/18 08:59:57;;;;;;;22.23;10.60;;;;;;;-149.78;100.00;50076.41;4807431;29;20042;-71
2022/03/18 09:02:23;;;;;;;23.15;10.52;;;;;;;-149.78;100.00;50094.00;4805284;29;20509;-72
2022/03/18 09:04:50;;;;;;;26.77;11.38;;;;;;;-149.78;100.00;50109.66;4823403;29;20411;-71
2022/03/18 09:07:17;;;;;;;30.05;10.63;;;;;;;-149.78;100.00;50052.94;4820990;29;20444;-71
2022/03/18 09:09:42;;;;;;;28.20;10.15;;;;;;;-149.78;100.00;50094.00;4807405;29;20580;-71
2022/03/18 09:12:08;;;;;;;23.88;9.90;;;;;;;-149.78;100.00;50070.53;4808056;29;20052;-71
2022/03/18 09:14:34;;;;;;;23.63;10.32;;;;;;;-149.78;100.00;50129.19;4794897;29;20424;-70
2022/03/18 09:17:00;;;;;;;26.60;9.90;;;;;;;-149.78;100.00;50052.94;4794795;29;20072;-71
2022/03/18 09:19:25;;;;;;;28.95;11.93;;;;;;;-149.78;100.00;50105.72;4807063;29;20126;-72
2022/03/18 09:21:51;;;;;;;26.05;10.50;;;;;;;-149.78;100.00;50050.97;4797739;29;20039;-71
2022/03/18 09:24:18;;;;;;;24.20;10.07;;;;;;;-149.78;100.00;50049.03;4812075;29;20038;-71
2022/03/18 09:26:44;;;;;;;20.35;9.13;;;;;;;-149.78;100.00;50043.16;4823571;29;20105;-71
2022/03/18 09:29:11;;;;;;;23.80;8.00;;;;;;;-149.78;100.00;50049.03;4822877;29;20034;-72
2022/03/18 09:31:37;;;;;;;19.45;6.95;;;;;;;-149.78;100.00;50095.94;4806629;29;20424;-73
2022/03/18 09:34:03;;;;;;;25.83;8.50;;;;;;;-149.78;100.00;50037.28;4821177;29;20130;-73
2022/03/18 09:36:31;;;;;;;21.67;5.72;;;;;;;-149.78;100.00;50088.13;4788806;29;20039;-71
2022/03/18 09:38:57;;;;;;;19.10;5.60;;;;;;;-149.78;100.00;50109.66;4820485;29;20530;-71
2022/03/18 09:41:23;;;;;;;19.23;6.05;;;;;;;-149.78;100.00;50084.22;4819791;29;20031;-70
2022/03/18 09:43:50;;;;;;;20.77;6.18;;;;;;;-149.78;100.00;50068.56;4802428;29;20071;-71
2022/03/18 09:46:19;;;;;;;25.92;6.72;;;;;;;-149.78;100.00;50142.88;4824566;29;20117;-70
2022/03/18 09:48:45;;;;;;;23.40;7.47;;;;;;;-149.78;100.00;50154.63;4806046;29;20034;-72
2022/03/18 09:51:11;;;;;;;25.35;7.70;;;;;;;-149.78;100.00;50092.03;4800180;29;20038;-72
2022/03/18 09:53:37;;;;;;;25.83;8.45;;;;;;;-149.78;100.00;50111.59;4805394;29;20133;-72
2022/03/18 09:56:04;;;;;;;24.70;7.40;;;;;;;-149.78;100.00;50138.97;4805264;29;20034;-71
2022/03/18 09:58:30;;;;;;;28.17;8.30;;;;;;;-149.78;100.00;50097.91;4806467;29;20141;-71
2022/03/18 10:00:58;;;;;;;21.63;8.63;;;;;;;-149.78;100.00;50076.41;4822961;29;20125;-71
2022/03/18 10:03:36;;;;;;;26.55;7.93;;;;;;;-149.78;92.55;50076.41;4823293;29;20050;-72
2022/03/18 10:06:04;;;;;;;27.33;8.43;;;;;;;-149.78;92.64;50052.94;4822285;29;20026;-69
2022/03/18 10:08:35;;;;;;;26.35;7.47;;;;;;;-149.78;85.10;50076.41;4801598;29;20034;-72
2022/03/18 10:11:20;;;;;;;23.10;6.82;;;;;;;-149.78;80.54;50049.03;4822803;29;20491;-72
2022/03/18 10:14:05;;;;;;;18.13;6.60;;;;;;;-149.78;76.69;50056.84;4814997;29;20041;-72
2022/03/18 10:16:36;;;;;;;17.98;6.25;;;;;;;-149.78;80.41;50052.94;4819149;29;20091;-72
2022/03/18 10:19:06;;;;;;;23.92;7.28;;;;;;;-149.78;81.94;50047.06;4793845;29;20070;-72
2022/03/18 10:21:33;;;;;;;23.25;6.45;;;;;;;-149.78;78.72;50072.50;4804231;29;20487;-72
2022/03/18 10:24:06;;;;;;;26.33;7.22;;;;;;;-149.78;82.32;50047.06;4818216;29;20495;-72
2022/03/18 10:26:39;;;;;;;23.33;7.22;;;;;;;-149.78;83.25;50088.13;4821045;29;20042;-72
2022/03/18 10:29:11;;;;;;;25.48;6.97;;;;;;;-149.78;83.24;50072.50;4820108;29;20030;-71
2022/03/18 10:31:39;;;;;;;;;;;;;;;-149.78;86.71;50111.59;4823577;29;20097;-72
2022/03/18 10:37:09;;;;;;;21.48;6.15;;;;;;;-149.78;90.16;50123.34;4834192;29;20494;-71
2022/03/18 10:39:34;;;;;;;20.00;6.65;;;;;;;-149.78;85.42;50072.50;4786713;29;20137;-71
2022/03/18 10:42:13;;;;;;;20.63;6.53;;;;;;;-149.78;81.11;50088.13;4821131;29;20117;-71
2022/03/18 10:44:59;;;;;;;20.23;6.60;;;;;;;-149.78;77.04;50039.25;4820084;29;20048;-74
2022/03/18 10:47:45;;;;;;;25.92;6.28;;;;;;;-149.78;72.68;50056.84;4821424;29;20061;-74
2022/03/18 10:50:30;;;;;;;21.60;6.57;;;;;;;-149.78;70.33;50062.72;4809362;29;20422;-75
2022/03/18 10:53:19;;;;;;;18.40;6.40;;;;;;;-149.78;68.44;49998.19;4775519;29;20050;-74
2022/03/18 10:56:04;;;;;;;13.82;5.30;;;;;;;-149.78;68.43;50006.00;4809322;29;20057;-74
2022/03/18 10:58:48;;;;;;;17.05;5.28;;;;;;;-149.78;67.27;50097.91;4823002;29;20048;-74
2022/03/18 11:01:33;;;;;;;23.92;6.22;;;;;;;-149.78;79.80;50101.81;4795951;29;20513;-74
2022/03/18 11:04:18;;;;;;;16.75;6.28;;;;;;;-149.78;78.33;50076.41;4815708;29;20150;-74
2022/03/18 11:13:12;;;;;;;21.17;6.38;;;;;;;-149.78;83.14;50090.09;4811588;29;20102;-74
2022/03/18 11:15:57;;;;;;;20.52;5.82;;;;;;;-149.78;78.83;50064.66;4806503;29;20065;-74
2022/03/18 11:18:41;;;;;;;20.25;5.75;;;;;;;-149.78;76.37;50095.94;4820509;29;20057;-75
2022/03/18 11:21:35;;;;;;;20.58;6.10;;;;;;;-149.78;78.38;50127.25;4808818;29;20053;-75
2022/03/18 11:24:22;;;;;;;25.08;5.93;;;;;;;-149.78;80.03;50080.31;4810093;29;20141;-74
2022/03/18 11:27:07;;;;;;;21.85;5.45;;;;;;;-149.78;79.72;50080.31;4819104;29;20075;-74
2022/03/18 11:30:17;;;;;;;20.60;5.78;;;;;;;-149.78;79.21;50060.75;4820785;29;20107;-75
2022/03/18 11:33:17;;;;;;;25.30;7.25;;;;;;;-149.78;87.33;50125.28;4810392;29;20084;-75
2022/03/18 11:36:02;;;;;;;20.30;5.47;;;;;;;-149.78;99.49;50144.84;4805096;29;20122;-74
2022/03/18 11:38:56;;;;;;;21.48;6.57;;;;;;;-149.78;100.00;50150.72;4811891;29;20497;-74